createdAt,value
2016-09-21T00:00:45.067Z,0
2016-09-21T00:01:45.688Z,0
2016-09-21T00:02:45.047Z,0
2016-09-21T00:03:45.040Z,0
2016-09-21T00:04:45.654Z,0
2016-09-21T00:05:45.022Z,0
2016-09-21T00:06:45.007Z,0
2016-09-21T00:07:44.993Z,0
2016-09-21T00:08:44.990Z,0
2016-09-21T00:09:45.000Z,0
2016-09-21T00:10:45.290Z,0
2016-09-21T00:11:45.904Z,0
2016-09-21T00:12:45.259Z,0
2016-09-21T00:13:45.581Z,0
2016-09-21T00:14:45.246Z,0
2016-09-21T00:15:44.924Z,0
2016-09-21T00:16:45.226Z,0
2016-09-21T00:17:44.893Z,0
2016-09-21T00:18:45.208Z,0
2016-09-21T00:19:44.879Z,0
2016-09-21T00:20:45.177Z,0
2016-09-21T00:21:45.485Z,0
2016-09-21T00:22:44.848Z,0
2016-09-21T00:23:45.161Z,0
2016-09-21T00:24:45.159Z,0
2016-09-21T00:25:45.128Z,0
2016-09-21T00:26:44.818Z,0
2016-09-21T00:27:44.805Z,0
2016-09-21T00:28:44.790Z,0
2016-09-21T00:29:45.093Z,0
2016-09-21T00:30:45.082Z,0
2016-09-21T00:31:45.076Z,0
2016-09-21T00:32:45.380Z,0
2016-09-21T00:33:44.740Z,0
2016-09-21T00:34:45.044Z,0
2016-09-21T00:35:45.340Z,0
2016-09-21T00:36:45.240Z,0
2016-09-21T00:37:45.015Z,0
2016-09-21T00:38:44.691Z,0
2016-09-21T00:39:44.687Z,0
2016-09-21T00:40:44.678Z,0
2016-09-21T00:41:44.977Z,0
2016-09-21T00:42:45.278Z,0
2016-09-21T00:43:44.956Z,0
2016-09-21T00:44:44.639Z,0
2016-09-21T00:45:44.940Z,0
2016-09-21T00:46:44.925Z,0
2016-09-21T00:47:45.233Z,0
2016-09-21T00:48:44.903Z,0
2016-09-21T00:49:44.896Z,0
2016-09-21T00:50:44.627Z,0
2016-09-21T00:51:45.189Z,0
2016-09-21T00:52:44.548Z,0
2016-09-21T00:53:44.565Z,0
2016-09-21T00:54:44.847Z,0
2016-09-21T00:55:44.563Z,0
2016-09-21T00:56:44.819Z,0
2016-09-21T00:57:44.833Z,0
2016-09-21T00:58:44.805Z,0
2016-09-21T00:59:44.492Z,0
2016-09-21T01:00:44.789Z,0
2016-09-21T01:01:44.767Z,0
2016-09-21T01:02:44.461Z,0
2016-09-21T01:03:45.063Z,0
2016-09-21T01:04:44.433Z,0
2016-09-21T01:05:44.736Z,0
2016-09-21T01:06:45.035Z,0
2016-09-21T01:07:44.706Z,0
2016-09-21T01:08:44.710Z,0
2016-09-21T01:09:44.427Z,0
2016-09-21T01:10:44.365Z,0
2016-09-21T01:11:44.353Z,0
2016-09-21T01:12:44.345Z,0
2016-09-21T01:13:44.339Z,0
2016-09-21T01:14:44.336Z,0
2016-09-21T01:15:44.650Z,0
2016-09-21T01:16:44.632Z,0
2016-09-21T01:17:44.622Z,0
2016-09-21T01:18:44.295Z,0
2016-09-21T01:19:44.597Z,0
2016-09-21T01:20:44.267Z,0
2016-09-21T01:21:44.561Z,0
2016-09-21T01:22:44.243Z,0
2016-09-21T01:23:44.557Z,0
2016-09-21T01:24:44.533Z,0
2016-09-21T01:25:44.211Z,0
2016-09-21T01:26:44.205Z,0
2016-09-21T01:27:44.194Z,0
2016-09-21T01:28:44.188Z,0
2016-09-21T01:29:44.479Z,0
2016-09-21T01:30:44.518Z,0
2016-09-21T01:31:44.465Z,0
2016-09-21T01:32:44.460Z,0
2016-09-21T01:33:44.750Z,0
2016-09-21T01:34:44.425Z,0
2016-09-21T01:35:44.733Z,0
2016-09-21T01:36:44.415Z,0
2016-09-21T01:37:44.400Z,0
2016-09-21T01:38:44.397Z,0
2016-09-21T01:39:44.056Z,0
2016-09-21T01:40:44.367Z,0
2016-09-21T01:41:44.058Z,0
2016-09-21T01:42:44.661Z,0
2016-09-21T01:43:44.647Z,0
2016-09-21T01:44:44.335Z,0
2016-09-21T01:45:44.635Z,0
2016-09-21T01:46:44.302Z,0
2016-09-21T01:47:43.979Z,0
2016-09-21T01:48:44.295Z,0
2016-09-21T01:49:43.951Z,0
2016-09-21T01:50:43.952Z,0
2016-09-21T01:51:44.268Z,0
2016-09-21T01:52:44.238Z,0
2016-09-21T01:53:44.240Z,0
2016-09-21T01:54:43.912Z,0
2016-09-21T01:55:44.212Z,0
2016-09-21T01:56:44.215Z,0
2016-09-21T01:57:44.178Z,0
2016-09-21T01:58:44.178Z,0
2016-09-21T01:59:44.473Z,0
2016-09-21T02:00:43.883Z,0
2016-09-21T02:01:44.143Z,0
2016-09-21T02:02:43.809Z,0
2016-09-21T02:03:44.180Z,0
2016-09-21T02:04:44.421Z,0
2016-09-21T02:05:44.088Z,0
2016-09-21T02:06:44.109Z,0
2016-09-21T02:07:44.714Z,0
2016-09-21T02:08:43.743Z,0
2016-09-21T02:09:43.739Z,0
2016-09-21T02:10:43.749Z,0
2016-09-21T02:11:44.602Z,0
2016-09-21T02:12:46.413Z,0
2016-09-21T02:13:43.739Z,0
2016-09-21T02:14:43.990Z,0
2016-09-21T02:15:43.980Z,0
2016-09-21T02:16:43.970Z,0
2016-09-21T02:17:43.960Z,0
2016-09-21T02:18:44.268Z,0
2016-09-21T02:19:43.957Z,0
2016-09-21T02:20:43.618Z,0
2016-09-21T02:21:43.921Z,0
2016-09-21T02:22:44.212Z,0
2016-09-21T02:23:43.595Z,0
2016-09-21T02:24:43.881Z,0
2016-09-21T02:25:43.588Z,0
2016-09-21T02:26:43.862Z,0
2016-09-21T02:27:44.493Z,0
2016-09-21T02:28:43.527Z,0
2016-09-21T02:29:43.847Z,0
2016-09-21T02:30:44.133Z,0
2016-09-21T02:31:43.873Z,0
2016-09-21T02:32:44.440Z,0
2016-09-21T02:33:43.468Z,0
2016-09-21T02:34:43.449Z,0
2016-09-21T02:35:43.438Z,0
2016-09-21T02:36:44.160Z,0
2016-09-21T02:37:43.729Z,0
2016-09-21T02:38:43.715Z,0
2016-09-21T02:39:43.719Z,0
2016-09-21T02:40:43.719Z,0
2016-09-21T02:41:43.371Z,0
2016-09-21T02:42:43.667Z,0
2016-09-21T02:43:43.660Z,0
2016-09-21T02:44:43.962Z,0
2016-09-21T02:45:43.317Z,0
2016-09-21T02:46:43.745Z,0
2016-09-21T02:47:43.924Z,0
2016-09-21T02:48:43.296Z,0
2016-09-21T02:49:43.908Z,0
2016-09-21T02:50:43.571Z,0
2016-09-21T02:51:43.573Z,0
2016-09-21T02:52:43.235Z,0
2016-09-21T02:53:43.541Z,0
2016-09-21T02:54:43.524Z,0
2016-09-21T02:55:43.291Z,0
2016-09-21T02:56:43.516Z,0
2016-09-21T02:57:43.508Z,0
2016-09-21T02:58:44.434Z,0
2016-09-21T02:59:44.104Z,0
2016-09-21T03:00:43.453Z,0
2016-09-21T03:01:43.127Z,0
2016-09-21T03:02:43.740Z,0
2016-09-21T03:03:43.123Z,0
2016-09-21T03:04:43.416Z,0
2016-09-21T03:05:43.392Z,0
2016-09-21T03:06:43.069Z,0
2016-09-21T03:07:43.109Z,0
2016-09-21T03:08:43.360Z,0
2016-09-21T03:09:43.657Z,0
2016-09-21T03:10:43.644Z,0
2016-09-21T03:11:43.329Z,0
2016-09-21T03:12:43.623Z,0
2016-09-21T03:13:43.299Z,0
2016-09-21T03:14:43.610Z,0
2016-09-21T03:15:42.974Z,0
2016-09-21T03:16:43.572Z,0
2016-09-21T03:17:43.267Z,0
2016-09-21T03:18:42.922Z,0
2016-09-21T03:19:43.224Z,0
2016-09-21T03:20:43.212Z,0
2016-09-21T03:21:42.887Z,0
2016-09-21T03:22:42.874Z,0
2016-09-21T03:23:42.860Z,0
2016-09-21T03:24:42.864Z,0
2016-09-21T03:25:42.838Z,0
2016-09-21T03:26:43.145Z,0
2016-09-21T03:27:42.813Z,0
2016-09-21T03:28:43.432Z,0
2016-09-21T03:29:42.788Z,0
2016-09-21T03:30:42.822Z,0
2016-09-21T03:31:43.122Z,0
2016-09-21T03:32:43.408Z,0
2016-09-21T03:33:43.045Z,0
2016-09-21T03:34:43.044Z,0
2016-09-21T03:35:43.059Z,0
2016-09-21T03:36:43.028Z,0
2016-09-21T03:37:43.010Z,0
2016-09-21T03:38:42.677Z,0
2016-09-21T03:39:43.006Z,0
2016-09-21T03:40:42.650Z,0
2016-09-21T03:41:42.951Z,0
2016-09-21T03:42:42.949Z,0
2016-09-21T03:43:42.625Z,0
2016-09-21T03:44:42.598Z,0
2016-09-21T03:45:42.587Z,0
2016-09-21T03:46:42.884Z,0
2016-09-21T03:47:42.869Z,0
2016-09-21T03:48:42.861Z,0
2016-09-21T03:49:42.850Z,0
2016-09-21T03:50:42.845Z,0
2016-09-21T03:51:42.825Z,0
2016-09-21T03:52:42.507Z,0
2016-09-21T03:53:42.796Z,0
2016-09-21T03:54:42.476Z,0
2016-09-21T03:55:42.771Z,0
2016-09-21T03:56:42.470Z,0
2016-09-21T03:57:42.433Z,0
2016-09-21T03:58:42.424Z,0
2016-09-21T03:59:43.039Z,0
2016-09-21T04:00:42.729Z,0
2016-09-21T04:01:43.011Z,0
2016-09-21T04:02:42.681Z,0
2016-09-21T04:03:42.987Z,0
2016-09-21T04:04:42.659Z,0
2016-09-21T04:05:42.338Z,0
2016-09-21T04:06:42.629Z,0
2016-09-21T04:07:42.934Z,0
2016-09-21T04:08:42.297Z,0
2016-09-21T04:09:42.283Z,0
2016-09-21T04:10:42.272Z,0
2016-09-21T04:11:42.259Z,0
2016-09-21T04:12:42.553Z,0
2016-09-21T04:13:42.549Z,0
2016-09-21T04:14:42.524Z,0
2016-09-21T04:15:42.203Z,0
2016-09-21T04:16:42.811Z,0
2016-09-21T04:17:42.184Z,0
2016-09-21T04:18:42.169Z,0
2016-09-21T04:19:43.163Z,0
2016-09-21T04:20:42.144Z,0
2016-09-21T04:21:42.438Z,0
2016-09-21T04:22:42.429Z,0
2016-09-21T04:23:42.409Z,0
2016-09-21T04:24:42.418Z,0
2016-09-21T04:25:43.012Z,0
2016-09-21T04:26:42.374Z,0
2016-09-21T04:27:42.387Z,0
2016-09-21T04:28:42.661Z,0
2016-09-21T04:29:42.652Z,0
2016-09-21T04:30:42.373Z,0
2016-09-21T04:31:42.942Z,0
2016-09-21T04:32:41.984Z,0
2016-09-21T04:33:41.966Z,0
2016-09-21T04:34:41.957Z,0
2016-09-21T04:35:42.277Z,0
2016-09-21T04:36:42.564Z,0
2016-09-21T04:37:41.917Z,0
2016-09-21T04:38:42.214Z,0
2016-09-21T04:39:42.207Z,0
2016-09-21T04:40:41.877Z,0
2016-09-21T04:41:42.185Z,0
2016-09-21T04:42:41.868Z,0
2016-09-21T04:43:42.159Z,0
2016-09-21T04:44:42.143Z,0
2016-09-21T04:45:41.811Z,0
2016-09-21T04:46:42.108Z,0
2016-09-21T04:47:42.100Z,0
2016-09-21T04:48:41.776Z,0
2016-09-21T04:49:42.073Z,0
2016-09-21T04:50:42.067Z,0
2016-09-21T04:51:42.047Z,0
2016-09-21T04:52:42.034Z,0
2016-09-21T04:53:41.713Z,0
2016-09-21T04:54:42.632Z,0
2016-09-21T04:55:41.685Z,0
2016-09-21T04:56:41.689Z,0
2016-09-21T04:57:41.670Z,0
2016-09-21T04:58:42.311Z,0
2016-09-21T04:59:41.624Z,0
2016-09-21T05:00:41.929Z,0
2016-09-21T05:01:41.605Z,0
2016-09-21T05:02:41.608Z,0
2016-09-21T05:03:41.894Z,0
2016-09-21T05:04:41.874Z,0
2016-09-21T05:05:41.930Z,0
2016-09-21T05:06:41.549Z,0
2016-09-21T05:07:41.532Z,0
2016-09-21T05:08:42.163Z,0
2016-09-21T05:09:41.823Z,0
2016-09-21T05:10:41.489Z,0
2016-09-21T05:11:42.124Z,0
2016-09-21T05:12:41.466Z,0
2016-09-21T05:13:41.775Z,0
2016-09-21T05:14:41.433Z,0
2016-09-21T05:15:41.789Z,0
2016-09-21T05:16:42.347Z,5
2016-09-21T05:17:41.740Z,5
2016-09-21T05:18:42.317Z,5
2016-09-21T05:19:41.374Z,5
2016-09-21T05:20:41.351Z,5
2016-09-21T05:21:41.348Z,5
2016-09-21T05:22:41.322Z,5
2016-09-21T05:23:41.635Z,5
2016-09-21T05:24:41.934Z,5
2016-09-21T05:25:41.288Z,10
2016-09-21T05:26:41.269Z,10
2016-09-21T05:27:41.585Z,10
2016-09-21T05:28:41.561Z,10
2016-09-21T05:29:41.562Z,10
2016-09-21T05:30:41.215Z,10
2016-09-21T05:31:41.240Z,10
2016-09-21T05:32:41.839Z,10
2016-09-21T05:33:41.188Z,15
2016-09-21T05:34:41.178Z,15
2016-09-21T05:35:41.473Z,15
2016-09-21T05:36:41.771Z,15
2016-09-21T05:37:41.483Z,15
2016-09-21T05:38:41.111Z,15
2016-09-21T05:39:41.438Z,15
2016-09-21T05:40:41.398Z,15
2016-09-21T05:41:41.406Z,20
2016-09-21T05:42:41.052Z,20
2016-09-21T05:43:41.369Z,20
2016-09-21T05:44:41.347Z,20
2016-09-21T05:45:41.027Z,20
2016-09-21T05:46:41.036Z,20
2016-09-21T05:47:41.324Z,20
2016-09-21T05:48:41.518Z,20
2016-09-21T05:49:41.934Z,25
2016-09-21T05:50:41.598Z,25
2016-09-21T05:51:41.257Z,25
2016-09-21T05:52:41.238Z,25
2016-09-21T05:53:41.235Z,25
2016-09-21T05:54:41.527Z,25
2016-09-21T05:55:41.223Z,25
2016-09-21T05:56:40.867Z,25
2016-09-21T05:57:40.863Z,25
2016-09-21T05:58:41.487Z,25
2016-09-21T05:59:40.829Z,30
2016-09-21T06:00:41.133Z,30
2016-09-21T06:01:40.799Z,30
2016-09-21T06:02:41.430Z,30
2016-09-21T06:03:41.091Z,30
2016-09-21T06:04:41.392Z,30
2016-09-21T06:05:41.382Z,30
2016-09-21T06:06:41.048Z,30
2016-09-21T06:07:40.735Z,35
2016-09-21T06:08:41.018Z,35
2016-09-21T06:09:41.026Z,35
2016-09-21T06:10:41.002Z,35
2016-09-21T06:11:40.988Z,35
2016-09-21T06:12:40.973Z,35
2016-09-21T06:13:40.970Z,35
2016-09-21T06:14:41.269Z,35
2016-09-21T06:15:40.940Z,40
2016-09-21T06:16:40.605Z,40
2016-09-21T06:17:40.590Z,40
2016-09-21T06:18:40.894Z,40
2016-09-21T06:19:40.878Z,40
2016-09-21T06:20:41.179Z,40
2016-09-21T06:21:40.866Z,40
2016-09-21T06:22:40.530Z,45
2016-09-21T06:23:40.826Z,45
2016-09-21T06:24:40.818Z,45
2016-09-21T06:25:40.832Z,45
2016-09-21T06:26:40.476Z,45
2016-09-21T06:27:40.466Z,45
2016-09-21T06:28:40.767Z,45
2016-09-21T06:29:40.756Z,45
2016-09-21T06:30:40.742Z,45
2016-09-21T06:31:40.460Z,50
2016-09-21T06:32:41.020Z,50
2016-09-21T06:33:41.014Z,50
2016-09-21T06:34:40.367Z,50
2016-09-21T06:35:40.363Z,50
2016-09-21T06:36:40.673Z,50
2016-09-21T06:37:40.854Z,50
2016-09-21T06:38:40.334Z,50
2016-09-21T06:39:40.619Z,50
2016-09-21T06:40:40.609Z,50
2016-09-21T06:41:40.354Z,55
2016-09-21T06:42:40.276Z,55
2016-09-21T06:43:40.887Z,55
2016-09-21T06:44:40.886Z,55
2016-09-21T06:45:40.545Z,55
2016-09-21T06:46:40.529Z,55
2016-09-21T06:47:40.208Z,55
2016-09-21T06:48:40.510Z,55
2016-09-21T06:49:40.215Z,55
2016-09-21T06:50:40.891Z,55
2016-09-21T06:51:40.556Z,55
2016-09-21T06:52:41.659Z,55
2016-09-21T06:53:40.479Z,55
2016-09-21T06:54:41.444Z,55
2016-09-21T06:55:40.811Z,60
2016-09-21T06:56:41.336Z,60
2016-09-21T06:57:40.925Z,60
2016-09-21T06:58:40.949Z,60
2016-09-21T06:59:40.928Z,60
2016-09-21T07:00:41.213Z,60
2016-09-21T07:01:40.472Z,60
2016-09-21T07:02:40.455Z,60
2016-09-21T07:03:40.935Z,60
2016-09-21T07:04:41.362Z,60
2016-09-21T07:05:40.343Z,60
2016-09-21T07:06:41.076Z,60
2016-09-21T07:07:40.633Z,60
2016-09-21T07:08:40.280Z,65
2016-09-21T07:09:40.587Z,65
2016-09-21T07:10:40.376Z,65
2016-09-21T07:11:40.630Z,65
2016-09-21T07:12:40.573Z,65
2016-09-21T07:13:40.582Z,65
2016-09-21T07:14:40.603Z,65
2016-09-21T07:15:40.863Z,65
2016-09-21T07:16:39.914Z,70
2016-09-21T07:17:40.613Z,70
2016-09-21T07:18:40.952Z,70
2016-09-21T07:19:40.818Z,70
2016-09-21T07:20:40.447Z,70
2016-09-21T07:21:40.819Z,70
2016-09-21T07:22:40.484Z,70
2016-09-21T07:23:40.475Z,70
2016-09-21T07:24:41.226Z,75
2016-09-21T07:25:40.204Z,75
2016-09-21T07:26:40.827Z,75
2016-09-21T07:27:39.805Z,75
2016-09-21T07:28:40.689Z,80
2016-09-21T07:29:40.089Z,80
2016-09-21T07:30:40.379Z,80
2016-09-21T07:31:40.858Z,80
2016-09-21T07:32:40.144Z,80
2016-09-21T07:33:41.104Z,85
2016-09-21T07:34:40.291Z,85
2016-09-21T07:35:40.595Z,85
2016-09-21T07:36:40.623Z,85
2016-09-21T07:37:40.457Z,85
2016-09-21T07:38:40.855Z,85
2016-09-21T07:39:40.414Z,85
2016-09-21T07:40:39.763Z,85
2016-09-21T07:41:40.365Z,85
2016-09-21T07:42:40.196Z,85
2016-09-21T07:43:40.343Z,85
2016-09-21T07:44:40.212Z,85
2016-09-21T07:45:40.239Z,90
2016-09-21T07:46:39.581Z,85
2016-09-21T07:47:39.933Z,90
2016-09-21T07:48:40.184Z,90
2016-09-21T07:49:40.277Z,90
2016-09-21T07:50:39.527Z,90
2016-09-21T07:51:40.391Z,90
2016-09-21T07:52:40.132Z,90
2016-09-21T07:53:39.779Z,90
2016-09-21T07:54:40.069Z,90
2016-09-21T07:55:39.743Z,90
2016-09-21T07:56:39.414Z,95
2016-09-21T07:57:40.099Z,95
2016-09-21T07:58:39.773Z,95
2016-09-21T07:59:40.322Z,95
2016-09-21T08:00:39.481Z,95
2016-09-21T08:01:40.037Z,95
2016-09-21T08:02:39.737Z,100
2016-09-21T08:03:40.271Z,100
2016-09-21T08:04:39.914Z,105
2016-09-21T08:05:40.344Z,115
2016-09-21T08:06:39.674Z,185
2016-09-21T08:07:39.781Z,205
2016-09-21T08:08:39.251Z,145
2016-09-21T08:09:39.568Z,125
2016-09-21T08:10:39.546Z,115
2016-09-21T08:11:39.527Z,115
2016-09-21T08:12:39.843Z,115
2016-09-21T08:13:39.200Z,115
2016-09-21T08:14:39.199Z,110
2016-09-21T08:15:39.503Z,115
2016-09-21T08:16:39.483Z,120
2016-09-21T08:17:39.469Z,115
2016-09-21T08:18:39.465Z,115
2016-09-21T08:19:39.135Z,115
2016-09-21T08:20:39.445Z,115
2016-09-21T08:21:39.128Z,115
2016-09-21T08:22:39.744Z,120
2016-09-21T08:23:39.406Z,115
2016-09-21T08:24:39.407Z,115
2016-09-21T08:25:39.706Z,115
2016-09-21T08:26:39.382Z,115
2016-09-21T08:27:39.995Z,115
2016-09-21T08:28:39.052Z,120
2016-09-21T08:29:39.038Z,120
2016-09-21T08:30:39.346Z,120
2016-09-21T08:31:39.019Z,120
2016-09-21T08:32:39.314Z,120
2016-09-21T08:33:39.325Z,120
2016-09-21T08:34:39.618Z,120
2016-09-21T08:35:39.298Z,120
2016-09-21T08:36:38.969Z,120
2016-09-21T08:37:39.484Z,120
2016-09-21T08:38:39.269Z,120
2016-09-21T08:39:39.390Z,120
2016-09-21T08:40:38.931Z,140
2016-09-21T08:41:39.245Z,145
2016-09-21T08:42:39.537Z,120
2016-09-21T08:43:38.902Z,120
2016-09-21T08:44:39.521Z,120
2016-09-21T08:45:39.516Z,120
2016-09-21T08:46:38.874Z,120
2016-09-21T08:47:39.178Z,120
2016-09-21T08:48:39.167Z,120
2016-09-21T08:49:38.845Z,125
2016-09-21T08:50:39.149Z,125
2016-09-21T08:51:39.134Z,125
2016-09-21T08:52:38.826Z,130
2016-09-21T08:53:38.812Z,125
2016-09-21T08:54:38.805Z,125
2016-09-21T08:55:38.806Z,125
2016-09-21T08:56:39.093Z,125
2016-09-21T08:57:39.393Z,130
2016-09-21T08:58:38.766Z,135
2016-09-21T08:59:39.077Z,130
2016-09-21T09:00:38.742Z,130
2016-09-21T09:01:39.053Z,135
2016-09-21T09:02:38.726Z,130
2016-09-21T09:03:39.028Z,130
2016-09-21T09:04:38.708Z,130
2016-09-21T09:05:38.709Z,130
2016-09-21T09:06:38.798Z,130
2016-09-21T09:07:39.028Z,135
2016-09-21T09:08:39.008Z,135
2016-09-21T09:09:38.977Z,135
2016-09-21T09:10:38.651Z,135
2016-09-21T09:11:39.278Z,130
2016-09-21T09:12:38.633Z,135
2016-09-21T09:13:38.947Z,135
2016-09-21T09:14:38.622Z,135
2016-09-21T09:15:39.248Z,135
2016-09-21T09:16:38.604Z,135
2016-09-21T09:17:38.912Z,135
2016-09-21T09:18:38.894Z,135
2016-09-21T09:19:39.515Z,135
2016-09-21T09:20:38.883Z,135
2016-09-21T09:21:38.938Z,135
2016-09-21T09:22:38.555Z,135
2016-09-21T09:23:38.857Z,135
2016-09-21T09:24:39.475Z,135
2016-09-21T09:25:38.837Z,135
2016-09-21T09:26:38.514Z,135
2016-09-21T09:27:38.826Z,135
2016-09-21T09:28:38.512Z,140
2016-09-21T09:29:38.810Z,140
2016-09-21T09:30:38.823Z,140
2016-09-21T09:31:38.588Z,140
2016-09-21T09:32:38.788Z,140
2016-09-21T09:33:38.462Z,150
2016-09-21T09:34:38.447Z,150
2016-09-21T09:35:38.649Z,145
2016-09-21T09:36:39.066Z,145
2016-09-21T09:37:38.742Z,145
2016-09-21T09:38:39.037Z,145
2016-09-21T09:39:38.742Z,145
2016-09-21T09:40:38.400Z,145
2016-09-21T09:41:38.391Z,145
2016-09-21T09:42:38.384Z,140
2016-09-21T09:43:38.999Z,140
2016-09-21T09:44:38.676Z,140
2016-09-21T09:45:38.669Z,140
2016-09-21T09:46:38.666Z,140
2016-09-21T09:47:38.352Z,140
2016-09-21T09:48:38.338Z,140
2016-09-21T09:49:38.953Z,155
2016-09-21T09:50:38.940Z,140
2016-09-21T09:51:38.316Z,140
2016-09-21T09:52:38.612Z,140
2016-09-21T09:53:38.306Z,140
2016-09-21T09:54:38.631Z,160
2016-09-21T09:55:38.280Z,200
2016-09-21T09:56:38.268Z,175
2016-09-21T09:57:38.573Z,145
2016-09-21T09:58:38.569Z,145
2016-09-21T09:59:38.571Z,145
2016-09-21T10:00:38.549Z,145
2016-09-21T10:01:38.540Z,145
2016-09-21T10:02:38.538Z,145
2016-09-21T10:03:38.529Z,150
2016-09-21T10:04:38.202Z,145
2016-09-21T10:05:38.512Z,155
2016-09-21T10:06:38.705Z,145
2016-09-21T10:07:38.496Z,145
2016-09-21T10:08:38.174Z,150
2016-09-21T10:09:38.475Z,145
2016-09-21T10:10:38.464Z,150
2016-09-21T10:11:38.153Z,165
2016-09-21T10:12:38.764Z,175
2016-09-21T10:13:38.449Z,165
2016-09-21T10:14:38.541Z,175
2016-09-21T10:15:38.439Z,215
2016-09-21T10:16:38.168Z,275
2016-09-21T10:17:38.727Z,290
2016-09-21T10:18:38.410Z,175
2016-09-21T10:19:39.024Z,160
2016-09-21T10:20:38.390Z,170
2016-09-21T10:21:38.385Z,150
2016-09-21T10:22:38.376Z,195
2016-09-21T10:23:38.060Z,230
2016-09-21T10:24:38.375Z,150
2016-09-21T10:25:38.989Z,150
2016-09-21T10:26:38.038Z,155
2016-09-21T10:27:38.335Z,155
2016-09-21T10:28:38.044Z,160
2016-09-21T10:29:38.329Z,170
2016-09-21T10:30:38.323Z,165
2016-09-21T10:31:38.614Z,170
2016-09-21T10:32:38.628Z,180
2016-09-21T10:33:37.986Z,230
2016-09-21T10:34:38.294Z,200
2016-09-21T10:35:37.987Z,195
2016-09-21T10:36:38.614Z,225
2016-09-21T10:37:38.472Z,205
2016-09-21T10:38:38.271Z,230
2016-09-21T10:39:38.269Z,245
2016-09-21T10:40:37.949Z,295
2016-09-21T10:41:38.580Z,240
2016-09-21T10:42:38.569Z,255
2016-09-21T10:43:38.444Z,510
2016-09-21T10:44:37.939Z,695
2016-09-21T10:45:37.902Z,750
2016-09-21T10:46:37.893Z,330
2016-09-21T10:47:38.827Z,200
2016-09-21T10:48:38.507Z,200
2016-09-21T10:49:38.830Z,205
2016-09-21T10:50:38.508Z,280
2016-09-21T10:51:38.185Z,280
2016-09-21T10:52:37.857Z,425
2016-09-21T10:53:37.857Z,735
2016-09-21T10:54:38.159Z,590
2016-09-21T10:55:38.155Z,615
2016-09-21T10:56:37.837Z,1080
2016-09-21T10:57:38.149Z,1135
2016-09-21T10:58:38.149Z,565
2016-09-21T10:59:38.772Z,470
2016-09-21T11:00:38.130Z,600
2016-09-21T11:01:38.131Z,335
2016-09-21T11:02:38.429Z,550
2016-09-21T11:03:37.826Z,415
2016-09-21T11:04:37.800Z,275
2016-09-21T11:05:38.248Z,285
2016-09-21T11:06:37.786Z,255
2016-09-21T11:07:38.114Z,255
2016-09-21T11:08:37.775Z,255
2016-09-21T11:09:37.773Z,255
2016-09-21T11:10:38.089Z,255
2016-09-21T11:11:37.770Z,290
2016-09-21T11:12:38.075Z,260
2016-09-21T11:13:37.751Z,350
2016-09-21T11:15:38.077Z,495
2016-09-21T11:16:38.372Z,375
2016-09-21T11:17:38.569Z,440
2016-09-21T11:18:38.058Z,525
2016-09-21T11:19:37.727Z,335
2016-09-21T11:20:37.937Z,325
2016-09-21T11:21:38.040Z,335
2016-09-21T11:22:38.553Z,380
2016-09-21T11:23:37.727Z,520
2016-09-21T11:24:38.030Z,545
2016-09-21T11:25:38.345Z,375
2016-09-21T11:26:38.016Z,360
2016-09-21T11:27:38.655Z,310
2016-09-21T11:28:37.689Z,310
2016-09-21T11:29:38.003Z,325
2016-09-21T11:30:38.002Z,395
2016-09-21T11:31:38.314Z,505
2016-09-21T11:32:37.995Z,535
2016-09-21T11:33:37.990Z,735
2016-09-21T11:34:37.669Z,660
2016-09-21T11:35:37.671Z,1205
2016-09-21T11:36:37.976Z,1310
2016-09-21T11:37:38.031Z,1180
2016-09-21T11:38:37.988Z,1540
2016-09-21T11:39:37.964Z,1600
2016-09-21T11:40:37.979Z,1580
2016-09-21T11:41:37.658Z,1675
2016-09-21T11:42:37.962Z,1770
2016-09-21T11:43:38.269Z,1755
2016-09-21T11:44:37.643Z,1720
2016-09-21T11:45:37.967Z,1670
2016-09-21T11:46:37.641Z,1620
2016-09-21T11:47:38.268Z,1605
2016-09-21T11:48:37.952Z,1680
2016-09-21T11:49:37.954Z,1680
2016-09-21T11:50:38.271Z,1685
2016-09-21T11:51:37.637Z,1705
2016-09-21T11:52:37.951Z,1680
2016-09-21T11:53:37.963Z,1685
2016-09-21T11:54:37.965Z,1670
2016-09-21T11:55:37.962Z,1645
2016-09-21T11:56:38.530Z,1655
2016-09-21T11:57:37.961Z,1635
2016-09-21T11:58:37.956Z,1615
2016-09-21T11:59:37.650Z,1595
2016-09-21T12:00:37.641Z,1555
2016-09-21T12:01:37.957Z,1545
2016-09-21T12:02:37.653Z,1590
2016-09-21T12:03:38.273Z,1650
2016-09-21T12:04:37.654Z,1690
2016-09-21T12:05:37.651Z,1700
2016-09-21T12:06:37.959Z,1700
2016-09-21T12:07:37.702Z,1730
2016-09-21T12:08:37.668Z,1735
2016-09-21T12:09:37.970Z,1720
2016-09-21T12:10:37.673Z,1720
2016-09-21T12:11:38.314Z,1700
2016-09-21T12:12:38.711Z,1665
2016-09-21T12:13:37.670Z,1660
2016-09-21T12:14:37.976Z,1675
2016-09-21T12:15:38.306Z,1695
2016-09-21T12:16:37.992Z,1680
2016-09-21T12:17:38.377Z,1670
2016-09-21T12:18:37.989Z,1665
2016-09-21T12:19:38.009Z,1660
2016-09-21T12:20:37.681Z,1660
2016-09-21T12:21:38.331Z,1625
2016-09-21T12:22:38.002Z,1495
2016-09-21T12:23:38.000Z,1345
2016-09-21T12:24:38.011Z,1250
2016-09-21T12:25:38.500Z,1280
2016-09-21T12:26:38.332Z,1410
2016-09-21T12:27:37.760Z,1640
2016-09-21T12:28:37.705Z,1760
2016-09-21T12:29:38.033Z,1715
2016-09-21T12:30:38.366Z,1640
2016-09-21T12:31:38.362Z,1600
2016-09-21T12:32:38.348Z,1625
2016-09-21T12:33:37.724Z,1660
2016-09-21T12:34:38.088Z,1680
2016-09-21T12:35:38.070Z,1660
2016-09-21T12:36:37.732Z,1675
2016-09-21T12:37:38.253Z,1665
2016-09-21T12:38:38.404Z,1645
2016-09-21T12:39:38.070Z,1540
2016-09-21T12:40:37.747Z,1640
2016-09-21T12:41:37.751Z,1630
2016-09-21T12:42:37.746Z,1620
2016-09-21T12:43:38.073Z,1630
2016-09-21T12:44:38.379Z,1610
2016-09-21T12:45:38.082Z,1605
2016-09-21T12:46:38.075Z,1590
2016-09-21T12:47:38.076Z,1570
2016-09-21T12:48:37.769Z,1545
2016-09-21T12:49:37.779Z,1555
2016-09-21T12:50:38.084Z,1540
2016-09-21T12:51:37.811Z,1585
2016-09-21T12:52:38.724Z,1570
2016-09-21T12:53:38.106Z,1480
2016-09-21T12:54:38.115Z,1425
2016-09-21T12:55:37.791Z,1475
2016-09-21T12:56:38.116Z,1540
2016-09-21T12:57:38.129Z,1555
2016-09-21T12:58:38.117Z,1555
2016-09-21T12:59:37.818Z,1480
2016-09-21T13:00:38.536Z,1490
2016-09-21T13:01:38.492Z,1565
2016-09-21T13:02:38.516Z,1545
2016-09-21T13:03:37.835Z,1550
2016-09-21T13:04:38.144Z,1540
2016-09-21T13:05:37.839Z,1480
2016-09-21T13:06:38.153Z,1395
2016-09-21T13:07:38.780Z,1445
2016-09-21T13:08:38.160Z,1465
2016-09-21T13:09:38.470Z,1430
2016-09-21T13:10:38.178Z,1440
2016-09-21T13:11:37.895Z,1445
2016-09-21T13:12:37.915Z,1425
2016-09-21T13:13:38.486Z,1405
2016-09-21T13:14:38.209Z,1395
2016-09-21T13:15:38.185Z,1425
2016-09-21T13:16:38.189Z,1330
2016-09-21T13:17:38.559Z,1340
2016-09-21T13:18:37.886Z,1390
2016-09-21T13:19:38.210Z,1385
2016-09-21T13:20:37.892Z,1425
2016-09-21T13:21:37.895Z,1445
2016-09-21T13:22:38.218Z,1495
2016-09-21T13:23:37.915Z,1465
2016-09-21T13:24:38.847Z,1385
2016-09-21T13:25:37.916Z,1375
2016-09-21T13:26:38.223Z,1370
2016-09-21T13:27:37.968Z,1355
2016-09-21T13:28:37.921Z,1330
2016-09-21T13:29:37.921Z,1260
2016-09-21T13:30:38.239Z,1205
2016-09-21T13:31:38.256Z,1155
2016-09-21T13:32:37.940Z,1170
2016-09-21T13:33:37.940Z,1120
2016-09-21T13:34:38.588Z,330
2016-09-21T13:35:38.261Z,925
2016-09-21T13:36:38.259Z,1045
2016-09-21T13:37:38.275Z,1105
2016-09-21T13:38:37.955Z,1075
2016-09-21T13:39:38.277Z,1005
2016-09-21T13:40:37.949Z,1060
2016-09-21T13:41:38.279Z,1120
2016-09-21T13:42:38.289Z,1115
2016-09-21T13:43:37.969Z,740
2016-09-21T13:44:37.977Z,1195
2016-09-21T13:46:38.915Z,1210
2016-09-21T13:47:37.983Z,1150
2016-09-21T13:48:37.976Z,1115
2016-09-21T13:49:38.177Z,1100
2016-09-21T13:50:37.988Z,1100
2016-09-21T13:51:38.635Z,1185
2016-09-21T13:52:37.994Z,1215
2016-09-21T13:53:38.312Z,1240
2016-09-21T13:54:38.940Z,1240
2016-09-21T13:55:38.008Z,355
2016-09-21T13:56:37.992Z,1020
2016-09-21T13:57:38.065Z,1205
2016-09-21T13:58:38.013Z,1215
2016-09-21T13:59:38.017Z,1155
2016-09-21T14:00:38.017Z,1070
2016-09-21T14:01:38.018Z,1015
2016-09-21T14:02:38.339Z,995
2016-09-21T14:03:38.028Z,1020
2016-09-21T14:04:38.348Z,1040
2016-09-21T14:05:38.219Z,1050
2016-09-21T14:06:38.034Z,1065
2016-09-21T14:07:38.039Z,1075
2016-09-21T14:08:38.034Z,1060
2016-09-21T14:09:38.037Z,1045
2016-09-21T14:10:38.040Z,1050